Time;durP1;ratioP1;P1;durP2;ratioP2;P2;SDS_P1;SDS_P2;PMS_P1;PMS_P2;Temp;Humidity;BMP_temperature;BMP_pressure;BME280_temperature;BME280_humidity;BME280_pressure;Samples;Min_cycle;Max_cycle;Signal;HPM_P1;HPM_P2
2022/01/29 00:02:49;;;;;;;10.30;5.50;;;1.30;98.00;;;;;;10131198;29;20245;-88
2022/01/29 00:07:51;;;;;;;11.73;5.53;;;0.60;99.00;;;;;;10113109;29;20337;-87
2022/01/29 00:12:54;;;;;;;16.13;7.37;;;0.70;99.90;;;;;;10118274;29;20238;-88
2022/01/29 00:17:56;;;;;;;16.40;6.77;;;0.80;99.10;;;;;;10121151;29;20235;-88
2022/01/29 00:22:59;;;;;;;14.57;6.80;;;0.60;99.90;;;;;;10130921;29;20278;-87
2022/01/29 00:28:01;;;;;;;10.17;5.57;;;0.20;99.90;;;;;;10122542;29;20669;-88
2022/01/29 00:33:04;;;;;;;10.73;5.10;;;-0.10;99.90;;;;;;10154326;29;20354;-88
2022/01/29 00:38:06;;;;;;;9.90;4.83;;;0.00;99.90;;;;;;10158740;29;20288;-87
2022/01/29 00:43:09;;;;;;;12.63;4.53;;;-0.10;99.90;;;;;;10153992;29;20293;-87
2022/01/29 00:48:11;;;;;;;10.07;4.47;;;0.10;99.90;;;;;;10152665;29;20263;-88
2022/01/29 00:53:14;;;;;;;8.47;4.80;;;0.00;99.90;;;;;;10151781;29;20233;-88
2022/01/29 00:58:16;;;;;;;8.60;4.47;;;-0.10;99.90;;;;;;10149903;29;20306;-88
2022/01/29 01:03:19;;;;;;;21.57;5.83;;;-0.20;99.90;;;;;;10164125;29;20291;-88
2022/01/29 01:08:21;;;;;;;17.30;5.53;;;-0.30;99.90;;;;;;10153226;29;20283;-88
2022/01/29 01:13:24;;;;;;;10.43;4.20;;;-0.30;99.90;;;;;;10152140;29;20231;-88
2022/01/29 01:18:27;;;;;;;23.23;5.67;;;-0.20;99.90;;;;;;10168976;29;20227;-88
2022/01/29 01:23:29;;;;;;;16.03;6.30;;;-0.40;99.90;;;;;;10152764;29;20787;-88
2022/01/29 01:28:32;;;;;;;18.60;7.17;;;-0.40;99.90;;;;;;10151616;29;20341;-88
2022/01/29 01:33:35;;;;;;;15.67;6.07;;;-0.50;99.90;;;;;;10151634;29;20286;-88
2022/01/29 01:38:54;;;;;;;18.43;7.27;;;-0.50;99.90;;;;;;10152116;29;20279;-88
2022/01/29 01:44:01;;;;;;;21.43;8.37;;;-0.40;99.90;;;;;;10168364;29;20780;-88
2022/01/29 01:49:04;;;;;;;16.70;7.07;;;-0.40;99.90;;;;;;10151653;29;20235;-88
2022/01/29 01:54:06;;;;;;;16.23;6.73;;;-0.30;99.90;;;;;;10168014;29;20232;-88
2022/01/29 01:59:09;;;;;;;15.30;6.40;;;0.70;99.90;;;;;;10150776;29;20242;-89
2022/01/29 02:04:12;;;;;;;12.70;4.33;;;1.20;99.90;;;;;;10135539;29;20235;-88
2022/01/29 02:09:15;;;;;;;13.50;5.40;;;0.40;99.90;;;;;;10151287;29;20232;-88
2022/01/29 02:14:20;;;;;;;11.20;6.00;;;0.10;99.90;;;;;;10150936;29;20983;-89
2022/01/29 02:19:22;;;;;;;13.33;6.17;;;-0.10;99.90;;;;;;10150356;29;20227;-88
2022/01/29 02:24:25;;;;;;;14.80;5.27;;;-0.10;99.90;;;;;;10167353;29;20228;-88
2022/01/29 02:29:31;;;;;;;12.50;4.30;;;-0.10;99.90;;;;;;10149878;29;20331;-88
2022/01/29 02:34:34;;;;;;;13.33;4.40;;;0.10;99.90;;;;;;10135048;29;20232;-89
2022/01/29 02:39:36;;;;;;;13.83;5.30;;;0.40;99.90;;;;;;10164349;29;20280;-89
2022/01/29 02:44:39;;;;;;;17.07;5.47;;;0.50;99.90;;;;;;10138472;29;20220;-89
2022/01/29 02:49:41;;;;;;;10.80;4.60;;;0.20;99.90;;;;;;10157120;29;20255;-88
2022/01/29 02:54:44;;;;;;;16.70;5.50;;;0.80;99.90;;;;;;10174890;29;20210;-89
2022/01/29 02:59:46;;;;;;;11.50;3.60;;;0.60;99.90;;;;;;10174126;29;20749;-89
2022/01/29 03:04:49;;;;;;;17.57;5.13;;;0.60;99.90;;;;;;10156542;29;20279;-89
2022/01/29 03:09:52;;;;;;;14.97;5.30;;;0.80;99.90;;;;;;10156822;29;20988;-89
2022/01/29 03:14:54;;;;;;;11.27;4.67;;;0.30;99.90;;;;;;10157310;29;20283;-89
2022/01/29 03:19:56;;;;;;;15.07;5.23;;;0.30;99.90;;;;;;10156845;29;20232;-87
2022/01/29 03:24:59;;;;;;;9.90;4.87;;;0.20;99.90;;;;;;10174022;29;20253;-89
2022/01/29 03:30:04;;;;;;;15.63;5.00;;;0.50;99.90;;;;;;10173237;29;20307;-89
2022/01/29 03:35:08;;;;;;;14.83;4.90;;;1.20;99.90;;;;;;10173301;29;20237;-89
2022/01/29 03:40:10;;;;;;;9.90;5.13;;;2.10;99.90;;;;;;10155900;29;20667;-89
2022/01/29 03:45:15;;;;;;;15.40;5.47;;;3.20;99.90;;;;;;10173106;29;20253;-89
2022/01/29 03:50:17;;;;;;;17.27;5.70;;;3.00;99.90;;;;;;10156098;29;20234;-89
2022/01/29 03:55:21;;;;;;;12.50;4.67;;;1.60;99.90;;;;;;10139923;29;20261;-89
2022/01/29 04:00:23;;;;;;;11.97;4.97;;;2.50;99.90;;;;;;10155116;29;20257;-89
2022/01/29 04:05:26;;;;;;;17.70;5.37;;;3.00;99.90;;;;;;10148728;29;20248;-88
2022/01/29 04:10:29;;;;;;;14.97;4.67;;;2.90;99.90;;;;;;10136131;29;20200;-88
2022/01/29 04:15:32;;;;;;;20.77;5.83;;;2.40;99.90;;;;;;10139246;29;20245;-88
2022/01/29 04:20:34;;;;;;;24.53;6.23;;;2.30;99.90;;;;;;10153726;29;20229;-88
2022/01/29 04:25:37;;;;;;;15.73;5.50;;;1.60;99.90;;;;;;10153768;29;20320;-89
2022/01/29 04:30:45;;;;;;;15.10;5.73;;;1.70;99.90;;;;;;10137903;29;20263;-89
2022/01/29 04:35:49;;;;;;;16.53;4.87;;;1.60;99.90;;;;;;10153335;29;20244;-88
2022/01/29 04:40:52;;;;;;;12.53;4.80;;;3.30;99.90;;;;;;10153306;29;20238;-89
2022/01/29 04:45:54;;;;;;;13.73;5.07;;;3.80;99.90;;;;;;10137694;29;20674;-88
2022/01/29 04:50:57;;;;;;;14.10;4.57;;;5.50;99.90;;;;;;10152760;29;20200;-88
2022/01/29 04:55:59;;;;;;;18.07;6.87;;;3.60;99.90;;;;;;10153041;29;20250;-89
2022/01/29 05:01:03;;;;;;;15.20;5.03;;;3.40;99.90;;;;;;10136975;29;20763;-88
2022/01/29 05:06:09;;;;;;;27.40;5.50;;;2.40;99.90;;;;;;10137069;29;20661;-88
2022/01/29 05:11:14;;;;;;;19.17;6.37;;;1.50;99.90;;;;;;10152269;29;20288;-88
2022/01/29 05:26:54;;;;;;;15.53;5.33;;;1.80;99.90;;;;;;10151126;29;20261;-88
2022/01/29 05:32:00;;;;;;;22.87;5.70;;;2.20;99.90;;;;;;10151627;29;20264;-88
2022/01/29 05:37:04;;;;;;;27.73;5.80;;;2.20;99.90;;;;;;10168650;29;20240;-88
2022/01/29 05:42:07;;;;;;;15.13;5.13;;;1.60;99.90;;;;;;10127884;29;20245;-88
2022/01/29 05:47:09;;;;;;;14.03;4.97;;;1.40;99.90;;;;;;10164798;29;20311;-88
2022/01/29 05:52:12;;;;;;;15.93;5.17;;;1.90;99.90;;;;;;10169196;29;20228;-88
2022/01/29 05:57:14;;;;;;;23.20;6.07;;;2.20;99.90;;;;;;10151367;29;20235;-88
2022/01/29 06:02:17;;;;;;;12.53;4.23;;;1.80;99.90;;;;;;10150201;29;20295;-88
2022/01/29 06:07:19;;;;;;;24.67;4.70;;;2.70;99.90;;;;;;10168105;29;20251;-88
2022/01/29 06:12:22;;;;;;;11.60;3.97;;;4.20;99.90;;;;;;10151718;29;20293;-88
2022/01/29 06:17:24;;;;;;;15.13;4.63;;;3.10;99.90;;;;;;10151921;29;20235;-89
2022/01/29 06:22:27;;;;;;;14.90;5.27;;;4.50;99.90;;;;;;10151947;29;20234;-87
2022/01/29 06:27:30;;;;;;;17.87;4.23;;;5.80;99.90;;;;;;10174719;29;20657;-89
2022/01/29 06:32:32;;;;;;;19.23;4.47;;;4.60;99.90;;;;;;10157199;29;20282;-87
2022/01/29 06:37:35;;;;;;;14.73;4.83;;;6.40;97.10;;;;;;10175653;29;20599;-88
2022/01/29 06:42:37;;;;;;;15.73;5.37;;;5.70;95.90;;;;;;10159330;29;20628;-88
2022/01/29 06:47:40;;;;;;;20.67;5.10;;;5.90;98.70;;;;;;10173962;29;20295;-88
2022/01/29 06:52:42;;;;;;;11.40;4.20;;;4.30;99.90;;;;;;10175671;29;20564;-88
2022/01/29 06:57:45;;;;;;;10.87;4.80;;;3.80;99.90;;;;;;10174706;29;20616;-88
2022/01/29 07:03:08;;;;;;;13.00;5.10;;;3.70;99.90;;;;;;10160362;29;20227;-88
2022/01/29 07:08:11;;;;;;;17.20;6.63;;;5.40;99.90;;;;;;10141946;29;20317;-87
2022/01/29 07:13:13;;;;;;;12.37;5.10;;;3.60;99.90;;;;;;10142752;29;20236;-89
2022/01/29 07:18:16;;;;;;;12.27;4.93;;;4.40;99.90;;;;;;10141206;29;20258;-88
2022/01/29 07:23:18;;;;;;;15.57;5.90;;;4.20;99.90;;;;;;10173696;29;20826;-87
2022/01/29 07:28:21;;;;;;;19.73;7.20;;;3.90;99.90;;;;;;10122782;29;20267;-88
2022/01/29 07:33:23;;;;;;;16.57;7.10;;;4.70;99.90;;;;;;10130368;29;20645;-88
2022/01/29 07:38:26;;;;;;;15.37;7.00;;;4.30;99.90;;;;;;10155248;29;20291;-88
2022/01/29 07:43:28;;;;;;;18.73;7.60;;;3.60;99.90;;;;;;10157152;29;20314;-87
2022/01/29 07:48:31;;;;;;;16.97;7.60;;;2.60;99.90;;;;;;10125536;29;20262;-87
2022/01/29 07:53:33;;;;;;;16.73;7.80;;;2.00;99.90;;;;;;10164529;29;20776;-87
2022/01/29 07:58:36;;;;;;;15.73;7.67;;;1.70;99.90;;;;;;10136200;29;20233;-88
2022/01/29 08:03:39;;;;;;;24.07;9.90;;;2.30;99.90;;;;;;10137169;29;20237;-87
2022/01/29 08:08:41;;;;;;;27.17;11.63;;;2.20;99.90;;;;;;10149737;29;20217;-87
2022/01/29 08:13:46;;;;;;;22.50;8.97;;;1.90;99.90;;;;;;10156470;29;20674;-87
2022/01/29 08:18:49;;;;;;;23.83;7.93;;;2.10;99.90;;;;;;10221829;28;20214;-89
2022/01/29 08:23:51;;;;;;;23.80;10.87;;;2.30;99.90;;;;;;10208739;28;20212;-93
2022/01/29 08:28:54;;;;;;;24.47;10.87;;;4.10;99.90;;;;;;10247660;28;20230;-91
2022/01/29 08:33:56;;;;;;;24.27;11.47;;;2.60;99.90;;;;;;10247530;28;20214;-93
2022/01/29 08:38:59;;;;;;;30.43;11.63;;;2.20;99.90;;;;;;10247540;28;20202;-92
2022/01/29 08:44:01;;;;;;;23.97;13.90;;;2.50;99.90;;;;;;10247276;28;20218;-93
2022/01/29 08:49:04;;;;;;;21.60;11.17;;;2.30;99.90;;;;;;10290850;28;20213;-91
2022/01/29 08:54:07;;;;;;;28.90;11.53;;;2.90;99.90;;;;;;10303912;28;20205;-93
2022/01/29 08:59:10;;;;;;;20.43;8.50;;;2.90;99.90;;;;;;10267975;28;20214;-90
2022/01/29 09:04:12;;;;;;;27.10;9.77;;;4.80;99.90;;;;;;10249203;28;20190;-92
2022/01/29 09:09:23;;;;;;;21.57;10.37;;;4.30;99.90;;;;;;10232872;28;20217;-91
2022/01/29 09:14:25;;;;;;;23.13;11.77;;;3.60;99.90;;;;;;10248754;28;20215;-91
2022/01/29 09:19:28;;;;;;;19.13;10.60;;;3.60;99.90;;;;;;10232716;28;20218;-91
2022/01/29 09:24:30;;;;;;;20.37;9.70;;;4.50;99.90;;;;;;10209017;29;20235;-91
2022/01/29 09:29:33;;;;;;;17.47;9.97;;;4.50;99.90;;;;;;10208842;29;20227;-92
2022/01/29 09:34:35;;;;;;;16.50;8.13;;;4.00;99.90;;;;;;10242512;28;20199;-91
2022/01/29 09:39:38;;;;;;;15.40;7.50;;;5.50;99.90;;;;;;10264184;28;20167;-91
2022/01/29 09:44:43;;;;;;;18.00;10.43;;;6.30;99.90;;;;;;10237709;28;20207;-92
2022/01/29 09:49:46;;;;;;;20.70;10.87;;;4.40;99.90;;;;;;10199958;29;20226;-92
2022/01/29 09:54:49;;;;;;;19.43;11.57;;;4.50;99.90;;;;;;10179889;29;20209;-93
2022/01/29 09:59:51;;;;;;;16.90;9.53;;;3.70;99.90;;;;;;10180428;29;20295;-93
2022/01/29 10:04:56;;;;;;;26.83;11.70;;;3.70;99.90;;;;;;10182486;29;20612;-85
2022/01/29 10:10:01;;;;;;;21.73;10.93;;;6.50;99.90;;;;;;10212081;29;20225;-85
2022/01/29 10:15:07;;;;;;;20.43;11.73;;;5.10;99.90;;;;;;10195949;29;20206;-85
2022/01/29 10:20:14;;;;;;;24.57;14.37;;;4.80;99.90;;;;;;10229516;29;20207;-85
2022/01/29 10:25:30;;;;;;;25.53;14.77;;;2.80;99.90;;;;;;10232745;29;20202;-85
2022/01/29 10:30:50;;;;;;;19.60;13.43;;;2.70;99.90;;;;;;10222868;29;20234;-85
2022/01/29 10:36:04;;;;;;;18.10;11.87;;;2.30;99.90;;;;;;10188906;29;20284;-85
2022/01/29 10:41:25;;;;;;;22.30;13.57;;;1.90;99.90;;;;;;10206092;29;20238;-84
2022/01/29 10:46:29;;;;;;;23.00;13.73;;;1.80;99.90;;;;;;9855646;29;9999882;-84
2022/01/29 10:51:33;;;;;;;29.40;16.43;;;1.70;99.90;;;;;;10217106;29;20259;-84
2022/01/29 10:56:59;;;;;;;23.20;15.23;;;1.90;99.90;;;;;;10216706;29;20240;-84
2022/01/29 11:02:05;;;;;;;26.07;15.43;;;2.50;99.90;;;;;;10217323;29;20236;-84
2022/01/29 11:07:14;;;;;;;22.87;13.60;;;2.40;99.90;;;;;;10193965;29;20250;-84
2022/01/29 11:12:26;;;;;;;26.87;16.00;;;3.00;99.90;;;;;;10192856;29;20249;-84
2022/01/29 11:17:31;;;;;;;25.67;15.50;;;3.20;99.90;;;;;;10191837;29;20650;-84
2022/01/29 11:22:38;;;;;;;21.13;15.50;;;2.40;99.90;;;;;;10193302;29;20330;-84
2022/01/29 11:27:41;;;;;;;25.87;15.40;;;1.80;99.90;;;;;;10191817;29;21006;-84
2022/01/29 11:32:47;;;;;;;27.07;15.77;;;1.80;99.90;;;;;;10208667;29;20263;-84
2022/01/29 11:38:01;;;;;;;18.70;11.13;;;1.90;99.90;;;;;;10191992;29;20293;-84
2022/01/29 11:43:19;;;;;;;17.20;11.27;;;3.90;99.90;;;;;;10209101;29;20227;-84
2022/01/29 11:48:36;;;;;;;19.43;10.83;;;7.50;99.90;;;;;;10174320;29;20250;-84
2022/01/29 11:53:44;;;;;;;18.70;11.73;;;6.50;99.90;;;;;;10208470;29;20274;-84
2022/01/29 11:58:47;;;;;;;15.07;9.80;;;5.10;99.90;;;;;;10190171;29;20222;-84
2022/01/29 12:03:53;;;;;;;15.33;9.83;;;5.20;99.90;;;;;;10207378;29;20239;-84
2022/01/29 12:09:04;;;;;;;13.13;9.00;;;7.40;99.90;;;;;;10192362;29;20307;-84
2022/01/29 12:14:16;;;;;;;16.43;10.33;;;6.70;99.90;;;;;;10194609;29;20222;-83
2022/01/29 12:19:40;;;;;;;14.00;9.83;;;8.20;99.90;;;;;;10193982;29;20226;-84
2022/01/29 12:24:55;;;;;;;14.23;9.60;;;6.80;99.90;;;;;;10177793;29;20206;-84
2022/01/29 12:29:57;;;;;;;15.70;8.90;;;10.30;99.90;;;;;;10192988;29;20274;-84
2022/01/29 12:35:03;;;;;;;16.77;7.87;;;8.60;99.90;;;;;;10210850;29;20615;-84
2022/01/29 12:40:20;;;;;;;14.70;9.50;;;7.40;99.90;;;;;;10177550;29;20215;-84
2022/01/29 12:45:30;;;;;;;14.93;9.53;;;7.70;99.90;;;;;;10193008;29;20242;-85
2022/01/29 12:50:33;;;;;;;20.60;10.33;;;8.10;99.90;;;;;;10192086;29;20243;-85
2022/01/29 12:55:36;;;;;;;16.53;8.83;;;6.30;99.90;;;;;;10209418;29;20251;-86
2022/01/29 13:00:39;;;;;;;14.90;9.63;;;5.30;99.90;;;;;;10176311;29;20643;-84
2022/01/29 13:05:43;;;;;;;13.47;9.07;;;5.70;99.90;;;;;;10191103;29;20293;-84
2022/01/29 13:10:46;;;;;;;17.33;11.33;;;6.00;99.90;;;;;;10201260;29;20254;-85
2022/01/29 13:15:48;;;;;;;16.53;10.80;;;6.20;99.90;;;;;;10179372;29;20591;-84
2022/01/29 13:20:53;;;;;;;13.63;9.13;;;6.70;99.90;;;;;;10198149;29;20235;-85
2022/01/29 13:25:55;;;;;;;15.93;8.60;;;7.40;99.90;;;;;;10174201;29;20249;-85
2022/01/29 13:31:03;;;;;;;16.23;10.23;;;7.40;99.90;;;;;;10195327;29;20692;-84
2022/01/29 13:36:05;;;;;;;15.43;8.77;;;6.90;99.90;;;;;;10186173;29;20695;-85
2022/01/29 13:41:20;;;;;;;17.47;10.93;;;6.70;99.90;;;;;;10188283;29;20750;-85
2022/01/29 13:46:24;;;;;;;12.23;8.97;;;4.90;99.90;;;;;;10211877;29;20298;-84
2022/01/29 13:51:30;;;;;;;13.03;9.27;;;6.20;99.90;;;;;;10190926;29;20258;-85
2022/01/29 13:56:35;;;;;;;13.30;8.57;;;8.80;99.90;;;;;;10208046;29;20651;-85
2022/01/29 14:01:50;;;;;;;11.27;8.60;;;8.20;99.90;;;;;;10178625;29;20286;-85
2022/01/29 14:06:58;;;;;;;10.70;8.23;;;9.50;99.90;;;;;;10187744;29;20596;-85
2022/01/29 14:12:22;;;;;;;13.27;9.23;;;9.20;99.90;;;;;;10184766;29;20251;-83
2022/01/29 14:17:29;;;;;;;12.73;8.83;;;9.00;99.90;;;;;;10189163;29;20255;-85
2022/01/29 14:22:35;;;;;;;15.20;8.80;;;7.40;99.90;;;;;;10169108;29;20226;-85
2022/01/29 14:27:38;;;;;;;14.80;8.73;;;6.60;99.90;;;;;;10167393;29;20290;-85
2022/01/29 14:32:43;;;;;;;12.97;9.00;;;7.00;99.90;;;;;;10185150;29;20244;-85
2022/01/29 14:37:46;;;;;;;10.87;8.00;;;9.60;99.90;;;;;;10171478;29;20295;-84
2022/01/29 14:42:49;;;;;;;12.77;8.37;;;9.10;99.90;;;;;;10211663;29;20287;-85
2022/01/29 14:47:51;;;;;;;16.20;12.63;;;9.70;99.90;;;;;;10207318;29;20250;-85
2022/01/29 14:52:54;;;;;;;12.10;8.53;;;9.70;99.90;;;;;;10213375;29;20234;-85
2022/01/29 14:57:56;;;;;;;12.27;8.67;;;10.90;99.90;;;;;;10213851;29;20306;-84
2022/01/29 15:02:59;;;;;;;14.50;8.90;;;10.30;99.90;;;;;;10196591;29;20600;-85
2022/01/29 15:08:02;;;;;;;8.93;6.70;;;10.80;99.90;;;;;;10213330;29;20666;-85
2022/01/29 15:13:05;;;;;;;10.33;8.33;;;11.40;99.90;;;;;;10196379;29;20290;-85
2022/01/29 15:18:08;;;;;;;11.53;7.83;;;11.30;99.90;;;;;;10195180;29;20247;-85
2022/01/29 15:23:20;;;;;;;9.60;7.93;;;11.40;99.90;;;;;;10212362;29;20239;-85
2022/01/29 15:28:23;;;;;;;10.80;7.53;;;12.40;99.90;;;;;;10195418;29;20263;-85
2022/01/29 15:33:27;;;;;;;10.03;7.90;;;12.40;99.90;;;;;;10194028;29;20309;-85
2022/01/29 15:38:30;;;;;;;13.43;8.23;;;11.90;99.90;;;;;;10194835;29;20305;-85
2022/01/29 15:43:35;;;;;;;11.13;8.80;;;12.30;99.90;;;;;;10212560;29;20239;-85
2022/01/29 15:48:38;;;;;;;9.37;8.37;;;12.60;99.90;;;;;;10194432;29;20250;-85
2022/01/29 15:53:41;;;;;;;12.23;8.03;;;12.60;99.90;;;;;;10194707;29;20286;-84
2022/01/29 15:58:43;;;;;;;10.47;8.87;;;12.70;99.90;;;;;;10183061;29;20715;-85
2022/01/29 16:03:47;;;;;;;10.03;7.73;;;12.80;99.90;;;;;;10170056;29;20247;-85
2022/01/29 16:08:51;;;;;;;9.70;7.70;;;12.90;99.90;;;;;;10194440;29;20246;-84
2022/01/29 16:13:55;;;;;;;9.67;7.73;;;13.00;99.90;;;;;;10210675;29;20278;-84
2022/01/29 16:18:57;;;;;;;11.87;8.03;;;13.20;99.90;;;;;;10210723;29;20268;-84
2022/01/29 16:24:00;;;;;;;15.27;7.77;;;12.90;99.90;;;;;;10177724;29;20238;-84
2022/01/29 16:29:02;;;;;;;10.73;7.57;;;13.40;99.90;;;;;;10192789;29;20267;-84
2022/01/29 16:34:05;;;;;;;12.30;8.10;;;13.60;99.90;;;;;;10192466;29;20301;-84
2022/01/29 16:39:07;;;;;;;12.07;8.30;;;13.10;99.90;;;;;;10210173;29;20976;-90
2022/01/29 16:44:10;;;;;;;15.23;9.23;;;13.50;99.90;;;;;;10205171;29;20243;-88
2022/01/29 16:49:12;;;;;;;12.67;9.03;;;12.90;99.90;;;;;;10193479;29;20705;-87
2022/01/29 16:54:15;;;;;;;10.23;7.63;;;13.80;99.90;;;;;;10185598;29;20286;-88
2022/01/29 16:59:19;;;;;;;9.93;7.40;;;14.80;99.90;;;;;;10188990;29;20233;-88
2022/01/29 17:04:22;;;;;;;10.83;7.10;;;14.50;99.90;;;;;;10187409;29;20246;-88
2022/01/29 17:09:25;;;;;;;10.43;7.93;;;14.20;99.90;;;;;;10208116;29;20267;-88
2022/01/29 17:14:27;;;;;;;11.30;7.13;;;14.10;99.90;;;;;;10191057;29;20285;-88
2022/01/29 17:19:30;;;;;;;10.20;7.87;;;14.10;99.90;;;;;;10199633;29;20675;-88
2022/01/29 17:24:32;;;;;;;15.03;7.50;;;13.90;99.90;;;;;;10190291;29;20283;-88
2022/01/29 17:29:35;;;;;;;8.57;7.63;;;13.90;99.90;;;;;;10207852;29;20275;-88
2022/01/29 17:34:42;;;;;;;9.07;7.13;;;14.00;99.90;;;;;;10209136;29;20238;-88
2022/01/29 17:39:47;;;;;;;8.43;6.93;;;14.00;99.90;;;;;;10190555;29;20227;-88
2022/01/29 17:44:50;;;;;;;8.20;6.93;;;13.80;99.90;;;;;;10191160;29;20308;-88
2022/01/29 17:49:52;;;;;;;8.37;6.90;;;13.80;99.90;;;;;;10198545;29;20262;-88
2022/01/29 17:54:55;;;;;;;10.57;6.67;;;13.70;99.90;;;;;;10207771;29;20206;-88
2022/01/29 18:00:04;;;;;;;9.47;6.57;;;13.80;99.90;;;;;;10208731;29;20285;-88
2022/01/29 18:05:13;;;;;;;8.57;6.30;;;13.60;99.90;;;;;;10214993;29;20771;-88
2022/01/29 18:10:16;;;;;;;9.47;5.90;;;13.60;99.90;;;;;;10207962;29;20274;-87
2022/01/29 18:15:18;;;;;;;8.17;6.00;;;13.50;99.90;;;;;;10194704;29;20240;-88
2022/01/29 18:20:21;;;;;;;7.33;5.93;;;13.50;99.90;;;;;;10215059;29;20631;-88
2022/01/29 18:25:24;;;;;;;7.83;6.40;;;13.40;99.90;;;;;;10212861;29;20286;-88
2022/01/29 18:30:26;;;;;;;7.10;5.60;;;13.40;99.90;;;;;;10214619;29;20267;-88
2022/01/29 18:35:29;;;;;;;10.40;5.63;;;13.40;99.90;;;;;;10214795;29;20234;-88
2022/01/29 18:40:40;;;;;;;9.70;5.90;;;13.40;99.90;;;;;;10176293;29;20755;-88
2022/01/29 18:45:45;;;;;;;7.97;5.47;;;13.50;99.90;;;;;;10188437;29;20240;-88
2022/01/29 18:50:54;;;;;;;6.33;5.60;;;13.50;99.90;;;;;;10213894;29;20639;-87
2022/01/29 18:55:56;;;;;;;6.50;5.00;;;13.60;99.90;;;;;;10196173;29;20262;-87
2022/01/29 19:00:59;;;;;;;9.67;5.87;;;13.50;99.90;;;;;;10194678;29;20247;-88
2022/01/29 19:06:02;;;;;;;5.57;4.87;;;13.50;99.90;;;;;;10213317;29;20266;-88
2022/01/29 19:11:09;;;;;;;7.60;5.23;;;13.30;99.90;;;;;;9514674;29;10000704;-88
2022/01/29 19:16:15;;;;;;;6.20;5.00;;;13.50;99.90;;;;;;10186277;29;20722;-87
2022/01/29 19:21:17;;;;;;;4.63;4.23;;;13.60;99.90;;;;;;10191863;29;20290;-87
2022/01/29 19:26:20;;;;;;;6.27;5.13;;;13.50;99.90;;;;;;10208339;29;20274;-88
2022/01/29 19:31:23;;;;;;;5.80;4.83;;;13.50;99.90;;;;;;10179481;29;20298;-88
2022/01/29 19:36:25;;;;;;;6.03;4.43;;;13.50;99.90;;;;;;10192484;29;20265;-87
2022/01/29 19:41:28;;;;;;;5.20;4.13;;;13.60;99.90;;;;;;10175820;29;20238;-87
2022/01/29 19:46:30;;;;;;;4.70;4.00;;;13.60;99.90;;;;;;10203429;29;20247;-88
2022/01/29 19:51:33;;;;;;;7.03;5.10;;;13.40;99.90;;;;;;10191341;29;20290;-88
2022/01/29 19:56:36;;;;;;;5.07;4.17;;;13.50;99.90;;;;;;10207470;29;20235;-87
2022/01/29 20:01:39;;;;;;;5.50;3.80;;;13.60;99.90;;;;;;10189184;29;20294;-87
2022/01/29 20:06:41;;;;;;;4.40;4.00;;;13.60;99.90;;;;;;10190614;29;20239;-87
2022/01/29 20:11:44;;;;;;;4.73;3.70;;;13.60;99.90;;;;;;10207677;29;20712;-88
2022/01/29 20:16:47;;;;;;;4.10;3.57;;;13.60;99.90;;;;;;10207688;29;20287;-87
2022/01/29 20:21:49;;;;;;;4.47;3.63;;;13.50;99.90;;;;;;10205117;29;20243;-87
2022/01/29 20:26:53;;;;;;;6.23;3.10;;;13.40;99.90;;;;;;10189670;29;20318;-88
2022/01/29 20:31:57;;;;;;;5.33;3.93;;;13.30;99.90;;;;;;10188764;29;20262;-88
2022/01/29 20:37:00;;;;;;;4.13;3.40;;;13.30;99.90;;;;;;10189124;29;20227;-88
2022/01/29 20:42:03;;;;;;;4.57;3.50;;;13.20;99.90;;;;;;10188970;29;20232;-87
2022/01/29 20:47:06;;;;;;;4.97;3.40;;;13.30;99.90;;;;;;10188993;29;20309;-87
2022/01/29 20:52:08;;;;;;;5.03;3.40;;;13.30;99.90;;;;;;10188027;29;20262;-87
2022/01/29 20:57:10;;;;;;;4.33;2.80;;;13.40;99.90;;;;;;10187000;29;20274;-87
2022/01/29 21:02:14;;;;;;;4.13;3.00;;;13.40;99.90;;;;;;10205553;29;20714;-87
2022/01/29 21:07:31;;;;;;;3.80;2.43;;;13.30;99.90;;;;;;10198078;29;20293;-88
2022/01/29 21:12:33;;;;;;;6.50;3.60;;;13.40;99.90;;;;;;10180697;29;20254;-88
2022/01/29 21:17:38;;;;;;;5.00;2.83;;;13.40;99.90;;;;;;10188198;29;20290;-88
2022/01/29 21:22:41;;;;;;;3.60;2.37;;;13.50;99.90;;;;;;10188548;29;20238;-87
2022/01/29 21:27:44;;;;;;;2.87;2.60;;;13.40;99.90;;;;;;10186614;29;20262;-87
2022/01/29 21:32:47;;;;;;;3.37;2.53;;;13.40;99.90;;;;;;10187520;29;20333;-88
2022/01/29 21:37:49;;;;;;;3.47;2.77;;;13.50;99.90;;;;;;10151760;29;20693;-87
2022/01/29 21:42:52;;;;;;;3.23;2.30;;;13.40;99.90;;;;;;10171294;29;20701;-87
2022/01/29 21:47:54;;;;;;;3.40;2.20;;;13.50;99.90;;;;;;10204592;29;20309;-87
2022/01/29 21:52:58;;;;;;;3.40;1.93;;;13.40;99.90;;;;;;10188519;29;20314;-87
2022/01/29 21:58:00;;;;;;;2.53;2.23;;;13.30;99.90;;;;;;10190478;29;20227;-87
2022/01/29 22:03:04;;;;;;;3.40;2.10;;;13.60;99.90;;;;;;10189847;29;20275;-87
2022/01/29 22:08:07;;;;;;;8.03;1.50;;;13.40;99.90;;;;;;10206082;29;20234;-87
2022/01/29 22:13:10;;;;;;;4.60;2.23;;;10.50;99.90;;;;;;10178662;29;20373;-87
2022/01/29 22:18:12;;;;;;;2.57;2.07;;;10.90;99.90;;;;;;10202511;29;20239;-87
2022/01/29 22:23:15;;;;;;;3.60;1.77;;;12.00;99.90;;;;;;10202155;29;20657;-87
2022/01/29 22:28:17;;;;;;;3.23;1.83;;;12.50;99.90;;;;;;10186438;29;20318;-86
2022/01/29 22:33:25;;;;;;;3.07;1.47;;;12.60;99.90;;;;;;10207118;29;20663;-86
2022/01/29 22:38:28;;;;;;;3.93;2.40;;;12.70;99.90;;;;;;10190704;29;20927;-85
2022/01/29 22:43:30;;;;;;;3.00;1.67;;;12.70;99.90;;;;;;10189963;29;20231;-86
2022/01/29 22:48:33;;;;;;;2.03;1.30;;;12.90;99.90;;;;;;10207836;29;20297;-87
2022/01/29 22:53:35;;;;;;;7.17;2.03;;;13.10;99.90;;;;;;10190347;29;20279;-87
2022/01/29 22:58:38;;;;;;;4.03;2.10;;;13.00;99.90;;;;;;10206954;29;20266;-85
2022/01/29 23:03:40;;;;;;;4.37;1.67;;;12.80;99.90;;;;;;10212742;29;20227;-86
2022/01/29 23:08:42;;;;;;;4.13;1.80;;;12.50;99.90;;;;;;10197079;29;20290;-86
2022/01/29 23:19:42;;;;;;;5.43;2.00;;;12.80;99.90;;;;;;10051173;29;20282;-86
2022/01/29 23:24:54;;;;;;;8.03;1.80;;;12.80;99.90;;;;;;10038341;29;20329;-85
2022/01/29 23:29:57;;;;;;;6.27;1.80;;;12.90;99.90;;;;;;10039348;29;20318;-85
2022/01/29 23:35:02;;;;;;;15.23;2.20;;;12.80;99.90;;;;;;10050608;29;20255;-86
2022/01/29 23:40:11;;;;;;;4.67;1.80;;;13.10;99.90;;;;;;10052675;29;20246;-86
2022/01/29 23:50:31;;;;;;;6.03;1.47;;;12.70;98.70;;;;;;10041593;29;20710;-85
2022/01/29 23:55:33;;;;;;;3.83;1.97;;;13.00;99.90;;;;;;10209296;29;20298;-85
